createdAt,value
2019-03-26T00:00:45.608Z,101528.17
2019-03-26T00:01:55.177Z,101525.46
2019-03-26T00:02:59.995Z,101528.55
2019-03-26T00:04:06.060Z,101525.50
2019-03-26T00:05:11.878Z,101524.17
2019-03-26T00:06:16.448Z,101529.23
2019-03-26T00:07:20.903Z,101526.64
2019-03-26T00:08:25.358Z,101528.76
2019-03-26T00:09:29.816Z,101528.68
2019-03-26T00:10:34.593Z,101524.38
2019-03-26T00:11:39.369Z,101529.56
2019-03-26T00:12:43.829Z,101531.16
2019-03-26T00:13:48.290Z,101529.82
2019-03-26T00:14:52.747Z,101532.63
2019-03-26T00:15:57.215Z,101534.85
2019-03-26T00:17:01.698Z,101536.14
2019-03-26T00:18:06.228Z,101532.99
2019-03-26T00:19:10.689Z,101542.51
2019-03-26T00:20:15.167Z,101528.10
2019-03-26T00:21:19.623Z,101532.42
2019-03-26T00:22:24.398Z,101538.38
2019-03-26T00:23:28.858Z,101535.72
2019-03-26T00:24:33.675Z,101536.56
2019-03-26T00:25:38.126Z,101536.93
2019-03-26T00:26:42.605Z,101534.78
2019-03-26T00:27:47.067Z,101534.34
2019-03-26T00:28:51.853Z,101538.11
2019-03-26T00:29:56.616Z,101537.66
2019-03-26T00:31:01.463Z,101539.97
2019-03-26T00:32:05.960Z,101537.86
2019-03-26T00:33:10.927Z,101538.59
2019-03-26T00:34:19.547Z,101535.11
2019-03-26T00:35:21.592Z,101535.11
2019-03-26T00:36:26.219Z,101532.92
2019-03-26T00:37:31.658Z,101535.44
2019-03-26T00:38:36.191Z,101530.09
2019-03-26T00:39:40.786Z,101529.20
2019-03-26T00:40:45.251Z,101534.42
2019-03-26T00:41:49.752Z,101525.77
2019-03-26T00:42:54.216Z,101530.18
2019-03-26T00:43:59.667Z,101529.77
2019-03-26T00:45:04.794Z,101530.59
2019-03-26T00:46:09.263Z,101527.95
2019-03-26T00:47:14.167Z,101520.66
2019-03-26T00:48:18.631Z,101519.30
2019-03-26T00:49:23.501Z,101520.09
2019-03-26T00:50:27.964Z,101519.73
2019-03-26T00:51:32.825Z,101519.41
2019-03-26T00:52:37.351Z,101529.45
2019-03-26T00:53:42.098Z,101527.59
2019-03-26T00:54:46.562Z,101528.95
2019-03-26T00:55:51.021Z,101521.39
2019-03-26T00:56:55.525Z,101526.49
2019-03-26T00:58:01.676Z,101524.02
2019-03-26T00:59:06.672Z,101524.02
2019-03-26T01:00:12.001Z,101520.17
2019-03-26T01:01:16.810Z,101524.13
2019-03-26T01:02:21.647Z,101525.47
2019-03-26T01:03:26.110Z,101524.00
2019-03-26T01:04:33.191Z,101525.89
2019-03-26T01:05:36.875Z,101526.38
2019-03-26T01:06:41.335Z,101525.97
2019-03-26T01:07:45.857Z,101524.27
2019-03-26T01:08:50.334Z,101525.97
2019-03-26T01:09:54.820Z,101522.45
2019-03-26T01:10:59.293Z,101525.05
2019-03-26T01:12:03.877Z,101519.41
2019-03-26T01:13:08.341Z,101523.19
2019-03-26T01:14:13.780Z,101523.15
2019-03-26T01:15:18.263Z,101523.15
2019-03-26T01:16:23.112Z,101521.12
2019-03-26T01:17:27.611Z,101528.94
2019-03-26T01:18:32.406Z,101531.00
2019-03-26T01:19:37.224Z,101528.48
2019-03-26T01:20:41.694Z,101531.08
2019-03-26T01:21:46.196Z,101529.66
2019-03-26T01:22:50.657Z,101528.73
2019-03-26T01:23:55.133Z,101523.15
2019-03-26T01:24:59.599Z,101530.44
2019-03-26T01:26:04.068Z,101524.33
2019-03-26T01:27:08.575Z,101525.22
2019-03-26T01:28:13.397Z,101522.55
2019-03-26T01:29:19.044Z,101519.47
2019-03-26T01:30:23.511Z,101521.22
2019-03-26T01:31:28.007Z,101519.11
2019-03-26T01:32:32.802Z,101514.33
2019-03-26T01:33:37.286Z,101516.03
2019-03-26T01:34:46.294Z,101514.22
2019-03-26T01:35:47.922Z,101521.06
2019-03-26T01:36:52.431Z,101523.20
2019-03-26T01:37:56.903Z,101520.17
2019-03-26T01:39:01.375Z,101515.84
2019-03-26T01:40:07.383Z,101519.20
2019-03-26T01:41:12.838Z,101513.98
2019-03-26T01:42:17.340Z,101516.05
2019-03-26T01:43:22.143Z,101519.97
2019-03-26T01:44:26.613Z,101528.44
2019-03-26T01:45:31.071Z,101531.84
2019-03-26T01:46:35.578Z,101524.95
2019-03-26T01:47:40.061Z,101523.66
2019-03-26T01:48:44.663Z,101526.20
2019-03-26T01:49:49.129Z,101526.13
2019-03-26T01:50:53.589Z,101528.36
2019-03-26T01:51:58.112Z,101523.18
2019-03-26T01:53:02.567Z,101518.11
2019-03-26T01:54:07.048Z,101520.50
2019-03-26T01:55:11.589Z,101513.61
2019-03-26T01:56:16.055Z,101519.24
2019-03-26T01:57:20.930Z,101516.09
2019-03-26T01:58:25.710Z,101510.87
2019-03-26T01:59:30.181Z,101515.20
2019-03-26T02:00:34.939Z,101513.09
2019-03-26T02:01:39.440Z,101517.38
2019-03-26T02:02:43.909Z,101518.68
2019-03-26T02:03:48.723Z,101515.72
2019-03-26T02:04:59.764Z,101516.13
2019-03-26T02:06:00.340Z,101514.95
2019-03-26T02:07:04.853Z,101515.06
2019-03-26T02:08:09.362Z,101513.92
2019-03-26T02:09:13.785Z,101516.15
2019-03-26T02:10:18.247Z,101516.59
2019-03-26T02:11:22.720Z,101516.96
2019-03-26T02:12:27.216Z,101512.14
2019-03-26T02:13:31.688Z,101511.78
2019-03-26T02:14:36.151Z,101513.08
2019-03-26T02:15:41.291Z,101507.52
2019-03-26T02:16:46.113Z,101504.56
2019-03-26T02:17:50.576Z,101506.19
2019-03-26T02:18:55.046Z,101513.64
2019-03-26T02:19:59.887Z,101510.12
2019-03-26T02:21:05.113Z,101509.56
2019-03-26T02:22:09.623Z,101513.97
2019-03-26T02:23:14.571Z,101519.41
2019-03-26T02:24:19.034Z,101518.16
2019-03-26T02:25:23.562Z,101521.94
2019-03-26T02:26:28.030Z,101522.78
2019-03-26T02:27:32.519Z,101525.73
2019-03-26T02:28:36.995Z,101525.37
2019-03-26T02:29:41.452Z,101522.05
2019-03-26T02:30:46.999Z,101526.19
2019-03-26T02:31:51.857Z,101526.34
2019-03-26T02:32:56.729Z,101522.56
2019-03-26T02:34:01.257Z,101514.67
2019-03-26T02:35:17.990Z,101523.49
2019-03-26T02:36:12.025Z,101526.61
2019-03-26T02:37:16.527Z,101534.67
2019-03-26T02:38:21.023Z,101530.34
2019-03-26T02:39:25.496Z,101520.94
2019-03-26T02:40:29.962Z,101520.58
2019-03-26T02:41:37.838Z,101520.53
2019-03-26T02:42:40.767Z,101518.46
2019-03-26T02:43:45.229Z,101523.65
2019-03-26T02:44:49.700Z,101525.80
2019-03-26T02:45:56.920Z,101520.28
2019-03-26T02:47:01.805Z,101518.25
2019-03-26T02:48:06.255Z,101518.61
2019-03-26T02:49:11.118Z,101517.39
2019-03-26T02:50:15.972Z,101522.95
2019-03-26T02:51:21.778Z,101522.88
2019-03-26T02:52:26.285Z,101524.61
2019-03-26T02:53:30.749Z,101523.58
2019-03-26T02:54:35.561Z,101522.28
2019-03-26T02:55:40.438Z,101522.76
2019-03-26T02:56:45.272Z,101519.80
2019-03-26T02:57:50.087Z,101515.54
2019-03-26T02:58:54.570Z,101514.61
2019-03-26T02:59:59.042Z,101516.28
2019-03-26T03:01:03.541Z,101514.98
2019-03-26T03:02:08.342Z,101516.69
2019-03-26T03:03:12.816Z,101516.65
2019-03-26T03:04:17.276Z,101514.02
2019-03-26T03:05:34.273Z,101516.65
2019-03-26T03:06:27.941Z,101514.05
2019-03-26T03:07:32.411Z,101518.34
2019-03-26T03:08:36.951Z,101516.23
2019-03-26T03:09:41.786Z,101514.31
2019-03-26T03:10:46.627Z,101510.91
2019-03-26T03:11:51.166Z,101510.02
2019-03-26T03:12:55.635Z,101515.61
2019-03-26T03:14:00.104Z,101513.86
2019-03-26T03:15:05.830Z,101513.38
2019-03-26T03:16:10.318Z,101508.20
2019-03-26T03:17:14.804Z,101513.27
2019-03-26T03:18:19.275Z,101508.53
2019-03-26T03:19:23.740Z,101511.52
2019-03-26T03:20:28.243Z,101506.02
2019-03-26T03:21:32.751Z,101500.54
2019-03-26T03:22:37.556Z,101507.47
2019-03-26T03:23:42.039Z,101502.28
2019-03-26T03:24:46.890Z,101501.91
2019-03-26T03:25:51.387Z,101500.61
2019-03-26T03:26:55.882Z,101499.80
2019-03-26T03:28:00.320Z,101498.39
2019-03-26T03:29:04.785Z,101498.95
2019-03-26T03:30:10.751Z,101496.36
2019-03-26T03:31:15.252Z,101492.39
2019-03-26T03:32:19.728Z,101502.35
2019-03-26T03:33:24.537Z,101500.09
2019-03-26T03:34:29.006Z,101500.91
2019-03-26T03:35:33.483Z,101502.57
2019-03-26T03:36:37.974Z,101503.50
2019-03-26T03:37:42.448Z,101497.27
2019-03-26T03:38:47.297Z,101499.19
2019-03-26T03:39:51.763Z,101496.23
2019-03-26T03:40:56.262Z,101489.20
2019-03-26T03:42:00.724Z,101491.78
2019-03-26T03:43:05.554Z,101493.56
2019-03-26T03:44:10.327Z,101493.12
2019-03-26T03:45:17.966Z,101493.12
2019-03-26T03:46:22.979Z,101488.02
2019-03-26T03:47:30.875Z,101488.46
2019-03-26T03:48:36.481Z,101484.94
2019-03-26T03:49:41.309Z,101488.31
2019-03-26T03:50:46.767Z,101477.91
2019-03-26T03:51:53.163Z,101480.02
2019-03-26T03:52:59.828Z,101484.02
2019-03-26T03:54:04.431Z,101483.20
2019-03-26T03:55:09.241Z,101488.46
2019-03-26T03:56:16.944Z,101489.75
2019-03-26T03:57:24.009Z,101492.83
2019-03-26T03:58:30.040Z,101489.75
2019-03-26T03:59:34.844Z,101481.53
2019-03-26T04:00:41.553Z,101480.13
2019-03-26T04:01:46.043Z,101475.76
2019-03-26T04:02:50.515Z,101472.68
2019-03-26T04:03:54.977Z,101471.75
2019-03-26T04:04:59.450Z,101469.16
2019-03-26T04:06:09.454Z,101479.94
2019-03-26T04:07:10.116Z,101475.56
2019-03-26T04:08:14.581Z,101484.55
2019-03-26T04:09:19.051Z,101480.70
2019-03-26T04:10:23.519Z,101484.63
2019-03-26T04:11:28.314Z,101480.38
2019-03-26T04:12:32.786Z,101477.34
2019-03-26T04:13:37.600Z,101486.77
2019-03-26T04:14:42.357Z,101481.67
2019-03-26T04:15:47.150Z,101481.16
2019-03-26T04:16:52.059Z,101478.16
2019-03-26T04:17:56.532Z,101474.38
2019-03-26T04:19:01.292Z,101479.64
2019-03-26T04:20:06.100Z,101475.31
2019-03-26T04:21:10.977Z,101478.34
2019-03-26T04:22:15.481Z,101475.42
2019-03-26T04:23:19.996Z,101472.91
2019-03-26T04:24:24.458Z,101475.13
2019-03-26T04:25:28.920Z,101476.58
2019-03-26T04:26:33.420Z,101470.51
2019-03-26T04:27:38.065Z,101468.80
2019-03-26T04:28:42.514Z,101466.70
2019-03-26T04:29:46.990Z,101463.18
2019-03-26T04:30:51.444Z,101468.73
2019-03-26T04:31:56.259Z,101466.99
2019-03-26T04:33:01.078Z,101462.18
2019-03-26T04:34:05.556Z,101459.95
2019-03-26T04:35:10.125Z,101457.73
2019-03-26T04:36:25.481Z,101458.66
2019-03-26T04:37:21.215Z,101455.66
2019-03-26T04:38:29.141Z,101457.28
2019-03-26T04:39:34.122Z,101455.98
2019-03-26T04:40:38.683Z,101459.40
2019-03-26T04:41:43.155Z,101458.47
2019-03-26T04:42:47.611Z,101461.09
2019-03-26T04:43:52.367Z,101468.47
2019-03-26T04:44:57.233Z,101476.84
2019-03-26T04:46:01.955Z,101470.17
2019-03-26T04:47:06.478Z,101464.70
2019-03-26T04:48:11.027Z,101472.22
2019-03-26T04:49:15.487Z,101469.25
2019-03-26T04:50:20.188Z,101473.70
2019-03-26T04:51:24.687Z,101471.25
2019-03-26T04:52:29.147Z,101470.25
2019-03-26T04:53:34.336Z,101467.31
2019-03-26T04:54:38.898Z,101474.80
2019-03-26T04:55:43.464Z,101469.68
2019-03-26T04:56:48.348Z,101463.71
2019-03-26T04:57:52.812Z,101470.81
2019-03-26T04:58:58.310Z,101470.52
2019-03-26T05:00:02.830Z,101464.91
2019-03-26T05:01:07.431Z,101463.76
2019-03-26T05:02:11.946Z,101471.27
2019-03-26T05:03:18.045Z,101476.12
2019-03-26T05:04:22.495Z,101473.59
2019-03-26T05:05:27.146Z,101471.10
2019-03-26T05:06:38.004Z,101474.58
2019-03-26T05:07:38.453Z,101481.58
2019-03-26T05:08:42.923Z,101486.36
2019-03-26T05:09:47.749Z,101485.64
2019-03-26T05:10:52.226Z,101483.42
2019-03-26T05:11:57.161Z,101490.46
2019-03-26T05:13:01.631Z,101487.45
2019-03-26T05:14:06.104Z,101480.97
2019-03-26T05:15:11.598Z,101478.41
2019-03-26T05:16:16.321Z,101472.88
2019-03-26T05:17:20.975Z,101480.73
2019-03-26T05:18:25.505Z,101481.95
2019-03-26T05:19:31.034Z,101480.28
2019-03-26T05:20:35.546Z,101476.80
2019-03-26T05:21:40.323Z,101485.47
2019-03-26T05:22:45.200Z,101488.13
2019-03-26T05:23:51.894Z,101491.08
2019-03-26T05:24:57.149Z,101484.24
2019-03-26T05:26:01.610Z,101493.05
2019-03-26T05:27:06.090Z,101484.79
2019-03-26T05:28:10.554Z,101487.37
2019-03-26T05:29:15.116Z,101489.70
2019-03-26T05:30:19.565Z,101491.27
2019-03-26T05:31:24.041Z,101494.89
2019-03-26T05:46:24.144Z,101515.89
2019-03-26T05:47:28.683Z,101515.41
2019-03-26T05:48:33.549Z,101521.91
2019-03-26T05:49:39.088Z,101519.72
2019-03-26T05:50:43.560Z,101521.12
2019-03-26T05:51:48.050Z,101524.23
2019-03-26T05:52:52.924Z,101520.91
2019-03-26T05:53:58.786Z,101513.05
2019-03-26T05:55:03.315Z,101523.12
2019-03-26T05:56:07.779Z,101524.36
2019-03-26T05:57:12.248Z,101526.30
2019-03-26T05:58:17.031Z,101524.91
2019-03-26T05:59:21.499Z,101526.33
2019-03-26T06:00:26.148Z,101531.94
2019-03-26T06:01:30.900Z,101529.34
2019-03-26T06:02:35.393Z,101537.77
2019-03-26T06:03:39.858Z,101540.47
2019-03-26T06:04:44.340Z,101538.21
2019-03-26T06:05:49.161Z,101542.20
2019-03-26T06:07:04.293Z,101542.72
2019-03-26T06:07:59.955Z,101536.25
2019-03-26T06:09:05.767Z,101527.12
2019-03-26T06:10:11.349Z,101522.83
2019-03-26T06:11:15.823Z,101517.38
2019-03-26T06:12:20.312Z,101524.79
2019-03-26T06:13:24.811Z,101527.52
2019-03-26T06:14:29.270Z,101525.45
2019-03-26T06:15:33.748Z,101522.95
2019-03-26T06:16:38.894Z,101517.43
2019-03-26T06:17:43.533Z,101516.10
2019-03-26T06:18:47.998Z,101521.39
2019-03-26T06:19:52.903Z,101514.55
2019-03-26T06:20:57.372Z,101518.56
2019-03-26T06:22:01.932Z,101513.48
2019-03-26T06:23:06.936Z,101508.22
2019-03-26T06:24:11.424Z,101509.70
2019-03-26T06:25:15.963Z,101510.12
2019-03-26T06:26:20.583Z,101509.86
2019-03-26T06:27:25.234Z,101511.27
2019-03-26T06:28:29.860Z,101507.87
2019-03-26T06:29:34.660Z,101514.41
2019-03-26T06:30:39.809Z,101514.49
2019-03-26T06:31:44.634Z,101506.69
2019-03-26T06:32:49.185Z,101505.83
2019-03-26T06:33:53.934Z,101506.86
2019-03-26T06:34:58.421Z,101499.13
2019-03-26T06:36:02.953Z,101504.32
2019-03-26T06:37:17.385Z,101503.45
2019-03-26T06:38:13.606Z,101497.93
2019-03-26T06:39:18.077Z,101504.37
2019-03-26T06:40:22.949Z,101503.19
2019-03-26T06:41:27.406Z,101509.36
2019-03-26T06:42:31.892Z,101510.98
2019-03-26T06:43:37.392Z,101514.12
2019-03-26T06:44:42.130Z,101515.36
2019-03-26T06:45:46.596Z,101512.77
2019-03-26T06:46:51.067Z,101518.52
2019-03-26T06:47:55.562Z,101512.90
2019-03-26T06:49:00.150Z,101510.85
2019-03-26T06:50:07.568Z,101514.34
2019-03-26T06:51:12.037Z,101514.75
2019-03-26T06:52:16.740Z,101516.14
2019-03-26T06:53:21.220Z,101524.05
2019-03-26T06:54:25.687Z,101517.91
2019-03-26T06:55:30.146Z,101522.34
2019-03-26T06:56:34.849Z,101513.37
2019-03-26T06:57:39.316Z,101518.95
2019-03-26T06:58:43.816Z,101527.20
2019-03-26T06:59:48.273Z,101524.66
2019-03-26T07:00:53.191Z,101520.67
2019-03-26T07:01:57.728Z,101520.78
2019-03-26T07:03:03.828Z,101521.91
2019-03-26T07:04:08.928Z,101520.61
2019-03-26T07:05:13.631Z,101521.60
2019-03-26T07:06:18.108Z,101520.20
2019-03-26T07:07:31.349Z,101521.00
2019-03-26T07:08:28.821Z,101522.43
2019-03-26T07:09:33.314Z,101524.52
2019-03-26T07:10:37.964Z,101527.50
2019-03-26T07:11:42.414Z,101519.39
2019-03-26T07:12:46.874Z,101525.79
2019-03-26T07:13:51.758Z,101530.19
2019-03-26T07:14:56.222Z,101526.44
2019-03-26T07:16:00.693Z,101529.94
2019-03-26T07:17:05.161Z,101538.07
2019-03-26T07:18:09.926Z,101532.45
2019-03-26T07:19:14.407Z,101531.54
2019-03-26T07:20:19.037Z,101533.84
2019-03-26T07:21:23.494Z,101524.36
2019-03-26T07:22:28.360Z,101529.15
2019-03-26T07:23:33.909Z,101518.81
2019-03-26T07:24:38.390Z,101509.94
2019-03-26T07:25:42.862Z,101515.78
2019-03-26T07:26:47.378Z,101507.67
2019-03-26T07:27:52.261Z,101512.16
2019-03-26T07:28:56.999Z,101498.45
2019-03-26T07:30:01.460Z,101490.94
2019-03-26T07:31:05.987Z,101495.11
2019-03-26T07:32:10.745Z,101492.32
2019-03-26T07:33:15.351Z,101486.71
2019-03-26T07:34:20.202Z,101488.09
2019-03-26T07:35:24.646Z,101484.79
2019-03-26T07:36:29.113Z,101481.33
2019-03-26T07:37:44.619Z,101478.27
2019-03-26T07:38:40.067Z,101478.66
2019-03-26T07:39:44.551Z,101483.63
2019-03-26T07:40:49.030Z,101477.70
2019-03-26T07:41:53.886Z,101474.30
2019-03-26T07:42:58.682Z,101477.06
2019-03-26T07:44:03.452Z,101477.72
2019-03-26T07:45:08.578Z,101475.98
2019-03-26T07:46:13.041Z,101468.92
2019-03-26T07:47:17.502Z,101473.41
2019-03-26T07:48:21.957Z,101477.41
2019-03-26T07:49:26.441Z,101474.94
2019-03-26T07:50:30.910Z,101481.55
2019-03-26T07:51:35.373Z,101478.40
2019-03-26T07:52:39.851Z,101475.10
2019-03-26T07:53:44.318Z,101466.70
2019-03-26T07:54:49.089Z,101460.73
2019-03-26T07:55:53.571Z,101466.45
2019-03-26T07:56:58.471Z,101463.00
2019-03-26T07:58:03.423Z,101466.72
2019-03-26T07:59:07.985Z,101458.95
2019-03-26T08:00:13.403Z,101452.19
2019-03-26T08:01:18.109Z,101439.47
2019-03-26T08:02:22.564Z,101456.73
2019-03-26T08:03:27.023Z,101460.30
2019-03-26T08:04:31.922Z,101456.81
2019-03-26T08:05:36.771Z,101459.22
2019-03-26T08:06:41.528Z,101456.53
2019-03-26T08:07:57.777Z,101460.20
2019-03-26T08:08:52.545Z,101459.12
2019-03-26T08:09:57.376Z,101462.08
2019-03-26T08:11:01.817Z,101462.95
2019-03-26T08:12:06.280Z,101456.00
2019-03-26T08:13:10.774Z,101457.50
2019-03-26T08:14:15.248Z,101456.49
2019-03-26T08:15:20.344Z,101459.92
2019-03-26T08:16:25.404Z,101457.73
2019-03-26T08:17:29.819Z,101445.19
2019-03-26T08:18:34.280Z,101445.70
2019-03-26T08:19:38.762Z,101444.03
2019-03-26T08:20:43.230Z,101441.84
2019-03-26T08:21:47.696Z,101447.20
2019-03-26T08:22:52.161Z,101446.51
2019-03-26T08:23:56.621Z,101446.47
2019-03-26T08:25:01.108Z,101451.13
2019-03-26T08:26:06.630Z,101454.06
2019-03-26T08:27:11.176Z,101451.77
2019-03-26T08:28:15.627Z,101444.52
2019-03-26T08:29:20.092Z,101445.41
2019-03-26T08:30:24.586Z,101448.05
2019-03-26T08:31:29.113Z,101451.61
2019-03-26T08:32:33.568Z,101448.22
2019-03-26T08:33:38.034Z,101443.55
2019-03-26T08:34:42.544Z,101443.73
2019-03-26T08:35:47.005Z,101438.89
2019-03-26T08:36:51.471Z,101427.20
2019-03-26T08:37:55.918Z,101433.30
2019-03-26T08:39:00.451Z,101439.55
2019-03-26T08:40:08.373Z,101440.08
2019-03-26T08:41:12.826Z,101434.92
2019-03-26T08:42:17.571Z,101443.02
2019-03-26T08:43:22.041Z,101442.97
2019-03-26T08:44:26.518Z,101435.48
2019-03-26T08:45:31.014Z,101443.81
2019-03-26T08:46:35.747Z,101441.19
2019-03-26T08:47:40.229Z,101431.62
2019-03-26T08:48:45.044Z,101443.97
2019-03-26T08:49:49.522Z,101437.86
2019-03-26T08:50:53.997Z,101436.59
2019-03-26T08:51:58.887Z,101431.83
2019-03-26T08:53:03.335Z,101435.23
2019-03-26T08:54:07.798Z,101435.19
2019-03-26T08:55:13.031Z,101432.21
2019-03-26T08:56:17.555Z,101430.91
2019-03-26T08:57:22.405Z,101429.91
2019-03-26T08:58:26.921Z,101434.45
2019-03-26T08:59:31.483Z,101426.66
2019-03-26T09:00:35.965Z,101425.83
2019-03-26T09:01:40.818Z,101424.70
2019-03-26T09:02:45.307Z,101419.55
2019-03-26T09:03:49.760Z,101427.13
2019-03-26T09:04:54.247Z,101420.17
2019-03-26T09:05:58.886Z,101418.97
2019-03-26T09:07:03.357Z,101420.27
2019-03-26T09:08:08.209Z,101418.08
2019-03-26T09:09:13.049Z,101407.70
2019-03-26T09:10:17.678Z,101407.77
2019-03-26T09:11:22.151Z,101401.98
2019-03-26T09:12:26.612Z,101410.44
2019-03-26T09:13:31.089Z,101406.13
2019-03-26T09:14:35.547Z,101397.77
2019-03-26T09:15:40.403Z,101396.47
2019-03-26T09:16:44.875Z,101392.93
2019-03-26T09:17:49.335Z,101387.00
2019-03-26T09:18:54.185Z,101391.31
2019-03-26T09:19:58.663Z,101385.27
2019-03-26T09:21:03.150Z,101386.28
2019-03-26T09:22:07.627Z,101376.33
2019-03-26T09:23:12.583Z,101385.16
2019-03-26T09:24:17.119Z,101388.86
2019-03-26T09:25:21.725Z,101400.16
2019-03-26T09:26:26.231Z,101399.16
2019-03-26T09:27:30.672Z,101392.99
2019-03-26T09:28:35.149Z,101397.75
2019-03-26T09:29:39.719Z,101404.38
2019-03-26T09:30:44.246Z,101393.88
2019-03-26T09:31:48.709Z,101407.45
2019-03-26T09:32:53.186Z,101389.32
2019-03-26T09:33:58.036Z,101398.94
2019-03-26T09:35:02.784Z,101395.83
2019-03-26T09:36:07.266Z,101393.19
2019-03-26T09:37:11.727Z,101402.73
2019-03-26T09:38:16.188Z,101402.13
2019-03-26T09:39:21.624Z,101416.13
2019-03-26T09:40:26.179Z,101409.55
2019-03-26T09:41:31.336Z,101410.81
2019-03-26T09:42:37.589Z,101399.37
2019-03-26T09:43:42.046Z,101394.53
2019-03-26T09:44:46.505Z,101397.61
2019-03-26T09:45:51.046Z,101397.15
2019-03-26T09:46:55.525Z,101404.16
2019-03-26T09:47:59.999Z,101398.07
2019-03-26T09:49:04.471Z,101398.41
2019-03-26T09:50:11.298Z,101405.91
2019-03-26T09:51:15.778Z,101397.14
2019-03-26T09:52:20.235Z,101408.95
2019-03-26T09:53:25.677Z,101401.95
2019-03-26T09:54:30.447Z,101406.77
2019-03-26T09:55:34.982Z,101403.73
2019-03-26T09:56:39.886Z,101404.23
2019-03-26T09:57:44.341Z,101398.08
2019-03-26T09:58:48.869Z,101400.73
2019-03-26T09:59:53.342Z,101404.70
2019-03-26T10:00:57.814Z,101400.27
2019-03-26T10:02:02.303Z,101397.70
2019-03-26T10:03:06.765Z,101403.30
2019-03-26T10:04:11.303Z,101403.27
2019-03-26T10:05:15.768Z,101407.23
2019-03-26T10:06:23.725Z,101408.58
2019-03-26T10:07:26.745Z,101406.47
2019-03-26T10:08:31.282Z,101402.13
2019-03-26T10:09:35.751Z,101403.93
2019-03-26T10:10:41.312Z,101394.23
2019-03-26T10:11:45.864Z,101384.16
2019-03-26T10:12:50.328Z,101406.05
2019-03-26T10:13:54.788Z,101410.58
2019-03-26T10:14:59.554Z,101407.12
2019-03-26T10:16:04.520Z,101399.73
2019-03-26T10:17:10.317Z,101399.88
2019-03-26T10:18:14.772Z,101392.16
2019-03-26T10:19:19.246Z,101406.61
2019-03-26T10:20:23.706Z,101405.30
2019-03-26T10:21:28.183Z,101397.85
2019-03-26T10:22:32.671Z,101401.27
2019-03-26T10:23:37.125Z,101398.66
2019-03-26T10:24:41.584Z,101389.94
2019-03-26T10:25:46.420Z,101392.59
2019-03-26T10:26:51.238Z,101393.42
2019-03-26T10:27:56.663Z,101387.75
2019-03-26T10:29:15.095Z,101389.13
2019-03-26T10:30:11.110Z,101386.06
2019-03-26T10:31:15.571Z,101381.84
2019-03-26T10:32:20.111Z,101383.63
2019-03-26T10:33:24.568Z,101384.89
2019-03-26T10:34:29.034Z,101389.72
2019-03-26T10:35:33.634Z,101383.02
2019-03-26T10:36:41.460Z,101383.92
2019-03-26T10:37:45.122Z,101384.78
2019-03-26T10:38:49.858Z,101390.80
2019-03-26T10:39:54.716Z,101380.78
2019-03-26T10:40:59.567Z,101379.95
2019-03-26T10:42:06.922Z,101376.17
2019-03-26T10:43:10.509Z,101381.84
2019-03-26T10:44:15.815Z,101381.44
2019-03-26T10:45:20.257Z,101383.13
2019-03-26T10:46:24.725Z,101382.63
2019-03-26T10:47:29.608Z,101392.20
2019-03-26T10:48:34.072Z,101388.08
2019-03-26T10:49:38.542Z,101400.73
2019-03-26T10:50:42.998Z,101395.44
2019-03-26T10:51:47.463Z,101392.88
2019-03-26T10:52:51.960Z,101398.12
2019-03-26T10:53:56.410Z,101403.81
2019-03-26T10:55:01.264Z,101402.08
2019-03-26T10:56:07.219Z,101401.16
2019-03-26T10:57:11.680Z,101405.52
2019-03-26T10:58:16.445Z,101400.34
2019-03-26T10:59:20.902Z,101398.14
2019-03-26T11:00:25.709Z,101404.27
2019-03-26T11:01:30.237Z,101400.85
2019-03-26T11:02:34.720Z,101399.63
2019-03-26T11:03:39.791Z,101397.97
2019-03-26T11:04:44.635Z,101399.30
2019-03-26T11:05:49.473Z,101401.02
2019-03-26T11:06:55.008Z,101399.13
2019-03-26T11:07:59.492Z,101406.48
2019-03-26T11:09:18.874Z,101401.10
2019-03-26T11:10:11.804Z,101394.78
2019-03-26T11:11:16.552Z,101401.70
2019-03-26T11:12:21.298Z,101401.66
2019-03-26T11:13:25.783Z,101396.16
2019-03-26T11:14:31.965Z,101396.26
2019-03-26T11:15:36.831Z,101395.53
2019-03-26T11:16:41.414Z,101387.16
2019-03-26T11:17:46.301Z,101396.30
2019-03-26T11:18:50.776Z,101392.80
2019-03-26T11:19:56.189Z,101396.69
2019-03-26T11:21:03.029Z,101399.83
2019-03-26T11:22:06.887Z,101395.86
2019-03-26T11:23:11.400Z,101394.59
2019-03-26T11:24:15.835Z,101401.16
2019-03-26T11:25:20.619Z,101394.03
2019-03-26T11:26:25.459Z,101406.69
2019-03-26T11:27:30.211Z,101402.73
2019-03-26T11:28:35.003Z,101400.08
2019-03-26T11:29:39.451Z,101415.92
2019-03-26T11:30:44.304Z,101411.54
2019-03-26T11:31:48.759Z,101408.16
2019-03-26T11:32:53.579Z,101408.16
2019-03-26T11:33:59.591Z,101406.89
2019-03-26T11:35:08.296Z,101408.62
2019-03-26T11:36:12.754Z,101408.28
2019-03-26T11:37:17.293Z,101413.06
2019-03-26T11:38:21.792Z,101408.33
2019-03-26T11:39:32.539Z,101410.89
2019-03-26T11:40:32.748Z,101425.15
2019-03-26T11:41:37.286Z,101419.78
2019-03-26T11:42:41.742Z,101431.44
2019-03-26T11:43:46.547Z,101411.86
2019-03-26T11:44:51.042Z,101398.31
2019-03-26T11:45:55.504Z,101401.48
2019-03-26T11:47:01.389Z,101419.33
2019-03-26T11:48:05.812Z,101398.27
2019-03-26T11:49:10.284Z,101398.97
2019-03-26T11:50:15.173Z,101390.34
2019-03-26T11:51:19.633Z,101389.58
2019-03-26T11:52:24.493Z,101384.45
2019-03-26T11:53:29.308Z,101380.53
2019-03-26T11:54:33.764Z,101379.30
2019-03-26T11:55:38.558Z,101385.03
2019-03-26T11:56:43.357Z,101377.61
2019-03-26T11:57:47.826Z,101382.84
2019-03-26T11:58:52.298Z,101381.53
2019-03-26T11:59:57.731Z,101388.99
2019-03-26T12:01:02.195Z,101399.91
2019-03-26T12:02:08.387Z,101387.66
2019-03-26T12:03:12.842Z,101383.30
2019-03-26T12:04:17.321Z,101385.89
2019-03-26T12:05:21.797Z,101388.95
2019-03-26T12:06:26.636Z,101389.42
2019-03-26T12:07:31.460Z,101382.42
2019-03-26T12:08:36.277Z,101373.23
2019-03-26T12:09:46.444Z,101374.55
2019-03-26T12:10:48.267Z,101370.16
2019-03-26T12:11:52.723Z,101365.30
2019-03-26T12:12:57.198Z,101366.62
2019-03-26T12:14:02.114Z,101367.54
2019-03-26T12:15:11.062Z,101365.78
2019-03-26T12:16:15.535Z,101361.36
2019-03-26T12:17:20.371Z,101358.27
2019-03-26T12:18:24.825Z,101371.48
2019-03-26T12:19:29.308Z,101377.17
2019-03-26T12:20:34.043Z,101382.86
2019-03-26T12:21:39.081Z,101381.11
2019-03-26T12:22:43.540Z,101384.13
2019-03-26T12:23:47.996Z,101374.50
2019-03-26T12:24:52.545Z,101384.60
2019-03-26T12:25:57.003Z,101374.55
2019-03-26T12:27:02.430Z,101363.63
2019-03-26T12:28:06.961Z,101367.11
2019-03-26T12:29:11.423Z,101367.54
2019-03-26T12:30:18.946Z,101357.06
2019-03-26T12:31:23.472Z,101364.07
2019-03-26T12:32:28.265Z,101356.18
2019-03-26T12:33:32.728Z,101357.92